Terminal Aerodrome Forecast
Issued by NWS

Home | Current Version | Previous Version | Text Only | Print | Product List | Glossary On
Versions: 1 2 3 4 5 6 7 8 9 10 11 12 13 14
000
FTUS43 KMPX 112331
TAFRWF
TAF
KRWF 112331Z 1200/1224 33017G27KT P6SM FEW025
     FM120500 32012KT P6SM SKC
     FM120900 31008KT P6SM BKN100
     FM121400 27006KT P6SM BKN025 OVC100
     FM121800 23008KT P6SM BKN025 OVC050=

USA.gov is the U.S. government's official web portal to all federal, state and local government web resources and services.